sensor_id;sensor_type;location;lat;lon;timestamp;temperature;humidity
20066;DHT22;10193;48.884;9.182;2023-02-03T00:01:14;9.00;70.00
20066;DHT22;10193;48.884;9.182;2023-02-03T00:03:42;9.00;70.00
20066;DHT22;10193;48.884;9.182;2023-02-03T00:06:08;9.00;70.00
20066;DHT22;10193;48.884;9.182;2023-02-03T00:08:35;8.90;70.00
20066;DHT22;10193;48.884;9.182;2023-02-03T00:11:03;8.90;70.10
20066;DHT22;10193;48.884;9.182;2023-02-03T00:13:31;8.90;70.10
20066;DHT22;10193;48.884;9.182;2023-02-03T00:15:59;8.90;70.10
20066;DHT22;10193;48.884;9.182;2023-02-03T00:18:26;8.90;70.10
20066;DHT22;10193;48.884;9.182;2023-02-03T00:20:53;8.90;70.20
20066;DHT22;10193;48.884;9.182;2023-02-03T00:23:20;8.90;70.30
20066;DHT22;10193;48.884;9.182;2023-02-03T00:25:46;8.90;70.30
20066;DHT22;10193;48.884;9.182;2023-02-03T00:28:13;8.90;70.30
20066;DHT22;10193;48.884;9.182;2023-02-03T00:30:41;8.90;70.30
20066;DHT22;10193;48.884;9.182;2023-02-03T00:33:08;8.90;70.20
20066;DHT22;10193;48.884;9.182;2023-02-03T00:35:37;8.90;70.30
20066;DHT22;10193;48.884;9.182;2023-02-03T00:38:03;8.90;70.40
20066;DHT22;10193;48.884;9.182;2023-02-03T00:40:30;8.90;70.40
20066;DHT22;10193;48.884;9.182;2023-02-03T00:42:57;8.90;70.40
20066;DHT22;10193;48.884;9.182;2023-02-03T00:45:23;8.90;70.30
20066;DHT22;10193;48.884;9.182;2023-02-03T00:47:51;8.90;70.40
20066;DHT22;10193;48.884;9.182;2023-02-03T00:50:18;8.90;70.40
20066;DHT22;10193;48.884;9.182;2023-02-03T00:52:45;8.90;70.40
20066;DHT22;10193;48.884;9.182;2023-02-03T00:55:12;8.90;70.40
20066;DHT22;10193;48.884;9.182;2023-02-03T00:57:38;8.90;71.20
20066;DHT22;10193;48.884;9.182;2023-02-03T01:00:06;8.90;70.40
20066;DHT22;10193;48.884;9.182;2023-02-03T01:02:33;8.80;70.40
20066;DHT22;10193;48.884;9.182;2023-02-03T01:05:01;8.80;70.60
20066;DHT22;10193;48.884;9.182;2023-02-03T01:07:30;8.80;70.70
20066;DHT22;10193;48.884;9.182;2023-02-03T01:09:57;8.80;70.70
20066;DHT22;10193;48.884;9.182;2023-02-03T01:12:24;8.90;70.80
20066;DHT22;10193;48.884;9.182;2023-02-03T01:14:53;8.90;70.80
20066;DHT22;10193;48.884;9.182;2023-02-03T01:17:20;8.90;70.80
20066;DHT22;10193;48.884;9.182;2023-02-03T01:19:46;8.90;70.80
20066;DHT22;10193;48.884;9.182;2023-02-03T01:22:14;8.90;70.80
20066;DHT22;10193;48.884;9.182;2023-02-03T01:24:41;8.90;70.70
20066;DHT22;10193;48.884;9.182;2023-02-03T01:27:08;8.90;70.80
20066;DHT22;10193;48.884;9.182;2023-02-03T01:29:35;8.90;70.90
20066;DHT22;10193;48.884;9.182;2023-02-03T01:32:02;8.90;70.90
20066;DHT22;10193;48.884;9.182;2023-02-03T01:34:29;8.90;70.90
20066;DHT22;10193;48.884;9.182;2023-02-03T01:36:55;8.90;71.00
20066;DHT22;10193;48.884;9.182;2023-02-03T01:39:23;8.90;71.00
20066;DHT22;10193;48.884;9.182;2023-02-03T01:41:54;8.90;71.00
20066;DHT22;10193;48.884;9.182;2023-02-03T01:44:42;8.90;71.00
20066;DHT22;10193;48.884;9.182;2023-02-03T01:47:21;8.90;71.00
20066;DHT22;10193;48.884;9.182;2023-02-03T01:49:52;8.90;71.00
20066;DHT22;10193;48.884;9.182;2023-02-03T01:52:20;8.90;71.00
20066;DHT22;10193;48.884;9.182;2023-02-03T01:54:50;9.00;71.00
20066;DHT22;10193;48.884;9.182;2023-02-03T01:57:21;9.00;71.10
20066;DHT22;10193;48.884;9.182;2023-02-03T01:59:49;9.00;71.00
20066;DHT22;10193;48.884;9.182;2023-02-03T02:02:17;9.00;71.20
20066;DHT22;10193;48.884;9.182;2023-02-03T02:04:50;9.00;71.80
20066;DHT22;10193;48.884;9.182;2023-02-03T02:07:18;9.00;70.90
20066;DHT22;10193;48.884;9.182;2023-02-03T02:09:45;9.00;70.90
20066;DHT22;10193;48.884;9.182;2023-02-03T02:12:14;9.00;70.90
20066;DHT22;10193;48.884;9.182;2023-02-03T02:14:42;9.00;70.90
20066;DHT22;10193;48.884;9.182;2023-02-03T02:17:17;9.00;70.90
20066;DHT22;10193;48.884;9.182;2023-02-03T02:23:17;9.00;70.80
20066;DHT22;10193;48.884;9.182;2023-02-03T02:26:20;9.00;70.80
20066;DHT22;10193;48.884;9.182;2023-02-03T02:29:06;9.00;70.70
20066;DHT22;10193;48.884;9.182;2023-02-03T02:31:54;9.00;70.80
20066;DHT22;10193;48.884;9.182;2023-02-03T02:34:31;9.00;70.70
20066;DHT22;10193;48.884;9.182;2023-02-03T02:37:06;9.00;70.80
20066;DHT22;10193;48.884;9.182;2023-02-03T02:39:40;9.00;70.80
20066;DHT22;10193;48.884;9.182;2023-02-03T02:42:14;8.90;70.70
20066;DHT22;10193;48.884;9.182;2023-02-03T02:44:44;8.90;70.70
20066;DHT22;10193;48.884;9.182;2023-02-03T02:47:18;8.90;70.70
20066;DHT22;10193;48.884;9.182;2023-02-03T02:49:49;8.90;70.70
20066;DHT22;10193;48.884;9.182;2023-02-03T02:52:20;8.90;70.80
20066;DHT22;10193;48.884;9.182;2023-02-03T02:54:51;8.90;70.90
20066;DHT22;10193;48.884;9.182;2023-02-03T02:57:19;9.00;71.80
20066;DHT22;10193;48.884;9.182;2023-02-03T02:59:47;9.00;71.00
20066;DHT22;10193;48.884;9.182;2023-02-03T03:02:15;9.00;71.00
20066;DHT22;10193;48.884;9.182;2023-02-03T03:04:45;9.00;71.10
20066;DHT22;10193;48.884;9.182;2023-02-03T03:07:18;9.00;71.00
20066;DHT22;10193;48.884;9.182;2023-02-03T03:09:47;9.00;71.00
20066;DHT22;10193;48.884;9.182;2023-02-03T03:12:18;9.00;70.90
20066;DHT22;10193;48.884;9.182;2023-02-03T03:14:49;9.00;70.90
20066;DHT22;10193;48.884;9.182;2023-02-03T03:17:22;9.00;70.90
20066;DHT22;10193;48.884;9.182;2023-02-03T03:19:53;9.00;70.90
20066;DHT22;10193;48.884;9.182;2023-02-03T03:22:26;9.00;70.90
20066;DHT22;10193;48.884;9.182;2023-02-03T03:24:59;9.00;70.90
20066;DHT22;10193;48.884;9.182;2023-02-03T03:27:29;9.00;70.80
20066;DHT22;10193;48.884;9.182;2023-02-03T03:30:02;9.00;70.80
20066;DHT22;10193;48.884;9.182;2023-02-03T03:32:32;9.00;71.60
20066;DHT22;10193;48.884;9.182;2023-02-03T03:35:00;9.00;70.90
20066;DHT22;10193;48.884;9.182;2023-02-03T03:37:30;9.00;70.90
20066;DHT22;10193;48.884;9.182;2023-02-03T03:39:59;9.00;70.80
20066;DHT22;10193;48.884;9.182;2023-02-03T03:42:33;9.10;70.90
20066;DHT22;10193;48.884;9.182;2023-02-03T03:45:06;9.10;70.90
20066;DHT22;10193;48.884;9.182;2023-02-03T03:47:38;9.10;70.90
20066;DHT22;10193;48.884;9.182;2023-02-03T03:50:10;9.10;70.90
20066;DHT22;10193;48.884;9.182;2023-02-03T03:52:40;9.10;70.90
20066;DHT22;10193;48.884;9.182;2023-02-03T03:55:10;9.10;70.90
20066;DHT22;10193;48.884;9.182;2023-02-03T03:57:40;9.10;70.90
20066;DHT22;10193;48.884;9.182;2023-02-03T04:00:10;9.10;70.90
20066;DHT22;10193;48.884;9.182;2023-02-03T04:02:41;9.10;70.90
20066;DHT22;10193;48.884;9.182;2023-02-03T04:05:11;9.10;70.90
20066;DHT22;10193;48.884;9.182;2023-02-03T04:07:41;9.10;70.90
20066;DHT22;10193;48.884;9.182;2023-02-03T04:10:13;9.10;70.90
20066;DHT22;10193;48.884;9.182;2023-02-03T04:12:41;9.10;70.90
20066;DHT22;10193;48.884;9.182;2023-02-03T04:15:08;9.10;70.80
20066;DHT22;10193;48.884;9.182;2023-02-03T04:17:35;9.10;70.80
20066;DHT22;10193;48.884;9.182;2023-02-03T04:20:03;9.20;70.90
20066;DHT22;10193;48.884;9.182;2023-02-03T04:22:30;9.10;70.80
20066;DHT22;10193;48.884;9.182;2023-02-03T04:24:57;9.20;70.80
20066;DHT22;10193;48.884;9.182;2023-02-03T04:27:24;9.20;70.90
20066;DHT22;10193;48.884;9.182;2023-02-03T04:29:50;9.10;70.70
20066;DHT22;10193;48.884;9.182;2023-02-03T04:32:17;9.10;70.80
20066;DHT22;10193;48.884;9.182;2023-02-03T04:34:44;9.10;70.90
20066;DHT22;10193;48.884;9.182;2023-02-03T04:37:12;9.10;70.90
20066;DHT22;10193;48.884;9.182;2023-02-03T04:39:39;9.10;70.90
20066;DHT22;10193;48.884;9.182;2023-02-03T04:42:06;9.10;71.00
20066;DHT22;10193;48.884;9.182;2023-02-03T04:44:33;9.10;71.10
20066;DHT22;10193;48.884;9.182;2023-02-03T04:47:00;9.00;71.40
20066;DHT22;10193;48.884;9.182;2023-02-03T04:49:26;9.00;71.20
20066;DHT22;10193;48.884;9.182;2023-02-03T04:51:53;9.00;71.20
20066;DHT22;10193;48.884;9.182;2023-02-03T04:54:21;9.00;71.30
20066;DHT22;10193;48.884;9.182;2023-02-03T04:56:47;9.00;71.30
20066;DHT22;10193;48.884;9.182;2023-02-03T04:59:14;9.00;71.30
20066;DHT22;10193;48.884;9.182;2023-02-03T05:01:41;9.00;71.30
20066;DHT22;10193;48.884;9.182;2023-02-03T05:04:07;9.00;71.20
20066;DHT22;10193;48.884;9.182;2023-02-03T05:06:34;9.00;71.30
20066;DHT22;10193;48.884;9.182;2023-02-03T05:09:01;9.00;72.00
20066;DHT22;10193;48.884;9.182;2023-02-03T05:11:29;8.90;71.20
20066;DHT22;10193;48.884;9.182;2023-02-03T05:13:56;8.90;71.20
20066;DHT22;10193;48.884;9.182;2023-02-03T05:16:23;8.90;71.30
20066;DHT22;10193;48.884;9.182;2023-02-03T05:18:49;8.90;71.40
20066;DHT22;10193;48.884;9.182;2023-02-03T05:21:17;8.90;71.50
20066;DHT22;10193;48.884;9.182;2023-02-03T05:23:44;8.80;71.50
20066;DHT22;10193;48.884;9.182;2023-02-03T05:26:11;8.80;71.50
20066;DHT22;10193;48.884;9.182;2023-02-03T05:28:39;8.80;71.60
20066;DHT22;10193;48.884;9.182;2023-02-03T05:31:05;8.80;71.60
20066;DHT22;10193;48.884;9.182;2023-02-03T05:33:32;8.80;71.60
20066;DHT22;10193;48.884;9.182;2023-02-03T05:35:59;8.80;71.70
20066;DHT22;10193;48.884;9.182;2023-02-03T05:38:25;8.80;71.60
20066;DHT22;10193;48.884;9.182;2023-02-03T05:40:52;8.80;71.70
20066;DHT22;10193;48.884;9.182;2023-02-03T05:43:36;8.80;72.60
20066;DHT22;10193;48.884;9.182;2023-02-03T05:46:05;8.70;71.90
20066;DHT22;10193;48.884;9.182;2023-02-03T05:48:32;8.70;72.00
20066;DHT22;10193;48.884;9.182;2023-02-03T05:50:59;8.80;72.10
20066;DHT22;10193;48.884;9.182;2023-02-03T05:53:26;8.80;72.10
20066;DHT22;10193;48.884;9.182;2023-02-03T05:55:53;8.80;72.10
20066;DHT22;10193;48.884;9.182;2023-02-03T05:58:20;8.80;72.10
20066;DHT22;10193;48.884;9.182;2023-02-03T06:00:46;8.80;72.00
20066;DHT22;10193;48.884;9.182;2023-02-03T06:03:14;8.80;72.00
20066;DHT22;10193;48.884;9.182;2023-02-03T06:05:41;8.80;72.10
20066;DHT22;10193;48.884;9.182;2023-02-03T06:08:08;8.80;72.10
20066;DHT22;10193;48.884;9.182;2023-02-03T06:10:35;8.80;72.10
20066;DHT22;10193;48.884;9.182;2023-02-03T06:13:07;8.80;72.20
20066;DHT22;10193;48.884;9.182;2023-02-03T06:15:34;8.80;72.30
20066;DHT22;10193;48.884;9.182;2023-02-03T06:18:01;8.80;72.20
20066;DHT22;10193;48.884;9.182;2023-02-03T06:20:29;8.80;72.30
20066;DHT22;10193;48.884;9.182;2023-02-03T06:22:55;8.80;72.20
20066;DHT22;10193;48.884;9.182;2023-02-03T06:25:22;8.80;72.20
20066;DHT22;10193;48.884;9.182;2023-02-03T06:27:49;8.90;72.40
20066;DHT22;10193;48.884;9.182;2023-02-03T06:30:16;8.90;72.40
20066;DHT22;10193;48.884;9.182;2023-02-03T06:32:44;8.90;72.30
20066;DHT22;10193;48.884;9.182;2023-02-03T06:35:11;8.90;72.30
20066;DHT22;10193;48.884;9.182;2023-02-03T06:37:39;8.80;72.20
20066;DHT22;10193;48.884;9.182;2023-02-03T06:40:06;8.90;72.30
20066;DHT22;10193;48.884;9.182;2023-02-03T06:42:33;8.90;72.40
20066;DHT22;10193;48.884;9.182;2023-02-03T06:45:00;8.90;72.30
20066;DHT22;10193;48.884;9.182;2023-02-03T06:47:27;8.90;72.40
20066;DHT22;10193;48.884;9.182;2023-02-03T06:49:53;8.90;72.40
20066;DHT22;10193;48.884;9.182;2023-02-03T06:52:20;8.90;72.40
20066;DHT22;10193;48.884;9.182;2023-02-03T06:54:48;8.90;72.40
20066;DHT22;10193;48.884;9.182;2023-02-03T06:57:14;8.90;72.40
20066;DHT22;10193;48.884;9.182;2023-02-03T06:59:41;8.80;72.20
20066;DHT22;10193;48.884;9.182;2023-02-03T07:02:09;8.80;72.20
20066;DHT22;10193;48.884;9.182;2023-02-03T07:04:36;8.80;72.20
20066;DHT22;10193;48.884;9.182;2023-02-03T07:07:03;8.80;72.20
20066;DHT22;10193;48.884;9.182;2023-02-03T07:09:29;8.80;72.20
20066;DHT22;10193;48.884;9.182;2023-02-03T07:11:57;8.80;72.20
20066;DHT22;10193;48.884;9.182;2023-02-03T07:14:24;8.80;72.30
20066;DHT22;10193;48.884;9.182;2023-02-03T07:16:51;8.80;72.40
20066;DHT22;10193;48.884;9.182;2023-02-03T07:19:18;8.70;72.40
20066;DHT22;10193;48.884;9.182;2023-02-03T07:21:45;8.70;72.50
20066;DHT22;10193;48.884;9.182;2023-02-03T07:24:12;8.70;72.50
20066;DHT22;10193;48.884;9.182;2023-02-03T07:26:38;8.70;72.60
20066;DHT22;10193;48.884;9.182;2023-02-03T07:29:06;8.70;72.70
20066;DHT22;10193;48.884;9.182;2023-02-03T07:31:33;8.70;72.70
20066;DHT22;10193;48.884;9.182;2023-02-03T07:34:01;8.70;72.80
20066;DHT22;10193;48.884;9.182;2023-02-03T07:36:27;8.80;72.80
20066;DHT22;10193;48.884;9.182;2023-02-03T07:38:54;8.80;72.90
20066;DHT22;10193;48.884;9.182;2023-02-03T07:41:21;8.80;73.00
20066;DHT22;10193;48.884;9.182;2023-02-03T07:43:47;8.80;73.00
20066;DHT22;10193;48.884;9.182;2023-02-03T07:46:15;8.80;72.90
20066;DHT22;10193;48.884;9.182;2023-02-03T07:48:42;8.80;72.80
20066;DHT22;10193;48.884;9.182;2023-02-03T07:51:09;8.80;72.80
20066;DHT22;10193;48.884;9.182;2023-02-03T07:53:35;8.80;72.80
20066;DHT22;10193;48.884;9.182;2023-02-03T07:56:03;8.80;72.80
20066;DHT22;10193;48.884;9.182;2023-02-03T07:58:31;8.80;72.80
20066;DHT22;10193;48.884;9.182;2023-02-03T08:00:58;8.80;72.80
20066;DHT22;10193;48.884;9.182;2023-02-03T08:03:26;8.80;72.90
20066;DHT22;10193;48.884;9.182;2023-02-03T08:05:53;8.80;72.80
20066;DHT22;10193;48.884;9.182;2023-02-03T08:08:20;8.90;73.00
20066;DHT22;10193;48.884;9.182;2023-02-03T08:10:46;8.80;72.90
20066;DHT22;10193;48.884;9.182;2023-02-03T08:13:13;8.90;73.00
20066;DHT22;10193;48.884;9.182;2023-02-03T08:15:39;8.90;73.10
20066;DHT22;10193;48.884;9.182;2023-02-03T08:18:06;8.90;73.20
20066;DHT22;10193;48.884;9.182;2023-02-03T08:20:35;8.90;73.30
20066;DHT22;10193;48.884;9.182;2023-02-03T08:23:02;8.90;73.20
20066;DHT22;10193;48.884;9.182;2023-02-03T08:25:28;8.90;73.20
20066;DHT22;10193;48.884;9.182;2023-02-03T08:27:55;8.90;73.20
20066;DHT22;10193;48.884;9.182;2023-02-03T08:30:23;9.00;73.30
20066;DHT22;10193;48.884;9.182;2023-02-03T08:32:49;9.00;73.40
20066;DHT22;10193;48.884;9.182;2023-02-03T08:35:16;9.00;73.40
20066;DHT22;10193;48.884;9.182;2023-02-03T08:37:44;9.00;73.50
20066;DHT22;10193;48.884;9.182;2023-02-03T08:40:11;9.10;73.60
20066;DHT22;10193;48.884;9.182;2023-02-03T08:42:38;9.10;73.60
20066;DHT22;10193;48.884;9.182;2023-02-03T08:45:06;9.10;73.60
20066;DHT22;10193;48.884;9.182;2023-02-03T08:47:33;9.20;73.70
20066;DHT22;10193;48.884;9.182;2023-02-03T08:50:01;9.20;73.60
20066;DHT22;10193;48.884;9.182;2023-02-03T08:52:27;9.30;73.60
20066;DHT22;10193;48.884;9.182;2023-02-03T08:54:55;9.30;73.40
20066;DHT22;10193;48.884;9.182;2023-02-03T08:57:22;9.30;73.30
20066;DHT22;10193;48.884;9.182;2023-02-03T08:59:49;9.40;73.30
20066;DHT22;10193;48.884;9.182;2023-02-03T09:02:17;9.40;73.40
20066;DHT22;10193;48.884;9.182;2023-02-03T09:04:44;9.40;73.50
20066;DHT22;10193;48.884;9.182;2023-02-03T09:07:12;9.50;73.70
20066;DHT22;10193;48.884;9.182;2023-02-03T09:09:39;9.50;73.80
20066;DHT22;10193;48.884;9.182;2023-02-03T09:12:07;9.60;73.80
20066;DHT22;10193;48.884;9.182;2023-02-03T09:14:35;9.60;73.50
20066;DHT22;10193;48.884;9.182;2023-02-03T09:17:03;9.70;73.40
20066;DHT22;10193;48.884;9.182;2023-02-03T09:19:31;9.70;73.30
20066;DHT22;10193;48.884;9.182;2023-02-03T09:21:58;9.70;73.40
20066;DHT22;10193;48.884;9.182;2023-02-03T09:24:25;9.70;73.60
20066;DHT22;10193;48.884;9.182;2023-02-03T09:26:52;9.80;73.80
20066;DHT22;10193;48.884;9.182;2023-02-03T09:29:20;9.80;73.90
20066;DHT22;10193;48.884;9.182;2023-02-03T09:31:48;9.90;74.00
20066;DHT22;10193;48.884;9.182;2023-02-03T09:34:17;9.90;73.90
20066;DHT22;10193;48.884;9.182;2023-02-03T09:36:43;10.00;72.90
20066;DHT22;10193;48.884;9.182;2023-02-03T09:39:10;10.00;73.10
20066;DHT22;10193;48.884;9.182;2023-02-03T09:41:50;10.10;73.10
20066;DHT22;10193;48.884;9.182;2023-02-03T09:44:29;10.10;72.60
20066;DHT22;10193;48.884;9.182;2023-02-03T09:46:59;10.20;72.40
20066;DHT22;10193;48.884;9.182;2023-02-03T09:49:33;10.30;72.20
20066;DHT22;10193;48.884;9.182;2023-02-03T09:52:04;10.30;72.10
20066;DHT22;10193;48.884;9.182;2023-02-03T09:54:39;10.30;72.20
20066;DHT22;10193;48.884;9.182;2023-02-03T09:57:14;10.30;72.20
20066;DHT22;10193;48.884;9.182;2023-02-03T09:59:44;10.40;72.50
20066;DHT22;10193;48.884;9.182;2023-02-03T10:02:20;10.40;72.60
20066;DHT22;10193;48.884;9.182;2023-02-03T10:04:53;10.40;72.40
20066;DHT22;10193;48.884;9.182;2023-02-03T10:07:29;10.50;72.50
20066;DHT22;10193;48.884;9.182;2023-02-03T10:10:05;10.50;72.40
20066;DHT22;10193;48.884;9.182;2023-02-03T10:12:46;10.60;72.30
20066;DHT22;10193;48.884;9.182;2023-02-03T10:15:29;10.60;72.10
20066;DHT22;10193;48.884;9.182;2023-02-03T10:18:03;10.60;72.00
20066;DHT22;10193;48.884;9.182;2023-02-03T10:20:36;10.60;72.00
20066;DHT22;10193;48.884;9.182;2023-02-03T10:23:09;10.70;72.10
20066;DHT22;10193;48.884;9.182;2023-02-03T10:25:40;10.70;71.90
20066;DHT22;10193;48.884;9.182;2023-02-03T10:28:12;10.70;71.60
20066;DHT22;10193;48.884;9.182;2023-02-03T10:30:44;10.70;71.60
20066;DHT22;10193;48.884;9.182;2023-02-03T10:33:14;10.70;71.60
20066;DHT22;10193;48.884;9.182;2023-02-03T10:35:48;10.70;71.60
20066;DHT22;10193;48.884;9.182;2023-02-03T10:38:21;10.70;71.60
20066;DHT22;10193;48.884;9.182;2023-02-03T10:40:49;10.70;71.60
20066;DHT22;10193;48.884;9.182;2023-02-03T10:43:16;10.70;71.70
20066;DHT22;10193;48.884;9.182;2023-02-03T10:46:01;10.80;71.90
20066;DHT22;10193;48.884;9.182;2023-02-03T10:48:28;10.80;72.10
20066;DHT22;10193;48.884;9.182;2023-02-03T10:50:56;10.80;72.10
20066;DHT22;10193;48.884;9.182;2023-02-03T10:53:25;10.90;72.20
20066;DHT22;10193;48.884;9.182;2023-02-03T10:56:00;10.90;72.30
20066;DHT22;10193;48.884;9.182;2023-02-03T10:58:29;11.00;72.10
20066;DHT22;10193;48.884;9.182;2023-02-03T11:01:06;11.00;72.10
20066;DHT22;10193;48.884;9.182;2023-02-03T11:03:34;11.00;71.80
20066;DHT22;10193;48.884;9.182;2023-02-03T11:06:09;11.10;71.90
20066;DHT22;10193;48.884;9.182;2023-02-03T11:08:38;11.10;71.40
20066;DHT22;10193;48.884;9.182;2023-02-03T11:11:07;11.10;71.30
20066;DHT22;10193;48.884;9.182;2023-02-03T11:13:34;11.20;71.10
20066;DHT22;10193;48.884;9.182;2023-02-03T11:16:02;11.10;70.90
20066;DHT22;10193;48.884;9.182;2023-02-03T11:18:41;11.10;70.90
20066;DHT22;10193;48.884;9.182;2023-02-03T11:21:12;11.10;70.80
20066;DHT22;10193;48.884;9.182;2023-02-03T11:23:55;11.10;71.10
20066;DHT22;10193;48.884;9.182;2023-02-03T11:26:25;11.10;70.70
20066;DHT22;10193;48.884;9.182;2023-02-03T11:28:56;11.10;70.70
20066;DHT22;10193;48.884;9.182;2023-02-03T11:31:25;11.10;70.40
20066;DHT22;10193;48.884;9.182;2023-02-03T11:33:56;11.10;70.30
20066;DHT22;10193;48.884;9.182;2023-02-03T11:36:26;11.10;70.30
20066;DHT22;10193;48.884;9.182;2023-02-03T11:39:15;11.10;70.20
20066;DHT22;10193;48.884;9.182;2023-02-03T11:41:42;11.00;69.80
20066;DHT22;10193;48.884;9.182;2023-02-03T11:44:10;11.00;70.10
20066;DHT22;10193;48.884;9.182;2023-02-03T11:46:38;11.00;70.10
20066;DHT22;10193;48.884;9.182;2023-02-03T11:49:15;11.00;70.10
20066;DHT22;10193;48.884;9.182;2023-02-03T11:51:49;11.00;70.00
20066;DHT22;10193;48.884;9.182;2023-02-03T11:54:26;11.00;70.10
20066;DHT22;10193;48.884;9.182;2023-02-03T11:57:07;10.90;70.20
20066;DHT22;10193;48.884;9.182;2023-02-03T11:59:45;11.00;70.80
20066;DHT22;10193;48.884;9.182;2023-02-03T12:05:43;11.10;70.90
20066;DHT22;10193;48.884;9.182;2023-02-03T12:08:23;11.10;70.40
20066;DHT22;10193;48.884;9.182;2023-02-03T12:11:02;11.10;70.20
20066;DHT22;10193;48.884;9.182;2023-02-03T12:16:39;11.10;69.80
20066;DHT22;10193;48.884;9.182;2023-02-03T12:19:13;11.10;69.90
20066;DHT22;10193;48.884;9.182;2023-02-03T12:21:47;11.10;69.70
20066;DHT22;10193;48.884;9.182;2023-02-03T12:24:28;11.10;69.60
20066;DHT22;10193;48.884;9.182;2023-02-03T12:27:08;11.10;69.40
20066;DHT22;10193;48.884;9.182;2023-02-03T12:29:38;11.00;69.40
20066;DHT22;10193;48.884;9.182;2023-02-03T12:32:13;11.00;69.30
20066;DHT22;10193;48.884;9.182;2023-02-03T12:34:49;11.00;69.20
20066;DHT22;10193;48.884;9.182;2023-02-03T12:37:22;11.00;69.20
20066;DHT22;10193;48.884;9.182;2023-02-03T12:39:52;11.00;69.10
20066;DHT22;10193;48.884;9.182;2023-02-03T12:42:23;10.90;69.00
20066;DHT22;10193;48.884;9.182;2023-02-03T12:44:56;10.90;68.90
20066;DHT22;10193;48.884;9.182;2023-02-03T12:47:28;10.90;68.90
20066;DHT22;10193;48.884;9.182;2023-02-03T12:49:59;10.90;68.80
20066;DHT22;10193;48.884;9.182;2023-02-03T12:52:33;10.80;68.80
20066;DHT22;10193;48.884;9.182;2023-02-03T12:55:16;10.80;68.80
20066;DHT22;10193;48.884;9.182;2023-02-03T12:57:46;10.70;68.50
20066;DHT22;10193;48.884;9.182;2023-02-03T13:00:23;10.80;68.90
20066;DHT22;10193;48.884;9.182;2023-02-03T13:03:02;10.70;68.70
20066;DHT22;10193;48.884;9.182;2023-02-03T13:05:35;10.70;68.80
20066;DHT22;10193;48.884;9.182;2023-02-03T13:08:12;10.70;69.00
20066;DHT22;10193;48.884;9.182;2023-02-03T13:10:45;10.70;68.90
20066;DHT22;10193;48.884;9.182;2023-02-03T13:13:19;10.70;68.80
20066;DHT22;10193;48.884;9.182;2023-02-03T13:15:50;10.70;68.80
20066;DHT22;10193;48.884;9.182;2023-02-03T13:18:23;10.70;68.60
20066;DHT22;10193;48.884;9.182;2023-02-03T13:20:51;10.70;68.50
20066;DHT22;10193;48.884;9.182;2023-02-03T13:23:20;10.70;68.50
20066;DHT22;10193;48.884;9.182;2023-02-03T13:26:00;10.70;68.50
20066;DHT22;10193;48.884;9.182;2023-02-03T13:28:42;10.60;68.10
20066;DHT22;10193;48.884;9.182;2023-02-03T13:31:19;10.60;68.30
20066;DHT22;10193;48.884;9.182;2023-02-03T13:37:15;10.60;68.10
20066;DHT22;10193;48.884;9.182;2023-02-03T13:39:54;10.60;67.90
20066;DHT22;10193;48.884;9.182;2023-02-03T13:42:27;10.60;68.20
20066;DHT22;10193;48.884;9.182;2023-02-03T13:45:01;10.60;68.40
20066;DHT22;10193;48.884;9.182;2023-02-03T13:47:30;10.60;68.10
20066;DHT22;10193;48.884;9.182;2023-02-03T13:49:59;10.70;68.00
20066;DHT22;10193;48.884;9.182;2023-02-03T13:52:31;10.60;68.00
20066;DHT22;10193;48.884;9.182;2023-02-03T13:55:01;10.60;67.90
20066;DHT22;10193;48.884;9.182;2023-02-03T13:57:32;10.60;67.90
20066;DHT22;10193;48.884;9.182;2023-02-03T14:00:00;10.60;68.00
20066;DHT22;10193;48.884;9.182;2023-02-03T14:02:52;10.60;68.10
20066;DHT22;10193;48.884;9.182;2023-02-03T14:05:40;10.60;67.90
20066;DHT22;10193;48.884;9.182;2023-02-03T14:08:41;10.60;67.90
20066;DHT22;10193;48.884;9.182;2023-02-03T14:11:39;10.50;67.70
20066;DHT22;10193;48.884;9.182;2023-02-03T14:14:41;10.50;67.50
20066;DHT22;10193;48.884;9.182;2023-02-03T14:20:33;10.50;67.90
20066;DHT22;10193;48.884;9.182;2023-02-03T14:23:08;10.40;67.80
20066;DHT22;10193;48.884;9.182;2023-02-03T14:25:38;10.50;67.80
20066;DHT22;10193;48.884;9.182;2023-02-03T14:28:11;10.50;68.00
20066;DHT22;10193;48.884;9.182;2023-02-03T14:31:01;10.40;68.00
20066;DHT22;10193;48.884;9.182;2023-02-03T14:34:00;10.40;68.00
20066;DHT22;10193;48.884;9.182;2023-02-03T14:36:37;10.40;68.10
20066;DHT22;10193;48.884;9.182;2023-02-03T14:39:32;10.50;68.10
20066;DHT22;10193;48.884;9.182;2023-02-03T14:42:09;10.50;68.00
20066;DHT22;10193;48.884;9.182;2023-02-03T14:44:48;10.50;67.90
20066;DHT22;10193;48.884;9.182;2023-02-03T14:47:24;10.40;67.70
20066;DHT22;10193;48.884;9.182;2023-02-03T14:50:10;10.50;67.90
20066;DHT22;10193;48.884;9.182;2023-02-03T14:52:52;10.40;67.80
20066;DHT22;10193;48.884;9.182;2023-02-03T14:55:37;10.40;67.70
20066;DHT22;10193;48.884;9.182;2023-02-03T14:58:17;10.40;67.70
20066;DHT22;10193;48.884;9.182;2023-02-03T15:00:47;10.40;67.80
20066;DHT22;10193;48.884;9.182;2023-02-03T15:03:19;10.40;68.00
20066;DHT22;10193;48.884;9.182;2023-02-03T15:05:49;10.40;68.00
20066;DHT22;10193;48.884;9.182;2023-02-03T15:08:35;10.40;68.00
20066;DHT22;10193;48.884;9.182;2023-02-03T15:11:25;10.40;67.80
20066;DHT22;10193;48.884;9.182;2023-02-03T15:13:52;10.40;68.00
20066;DHT22;10193;48.884;9.182;2023-02-03T15:16:21;10.40;68.80
20066;DHT22;10193;48.884;9.182;2023-02-03T15:18:57;10.40;68.00
20066;DHT22;10193;48.884;9.182;2023-02-03T15:21:24;10.40;68.00
20066;DHT22;10193;48.884;9.182;2023-02-03T15:23:52;10.40;67.90
20066;DHT22;10193;48.884;9.182;2023-02-03T15:26:20;10.40;67.90
20066;DHT22;10193;48.884;9.182;2023-02-03T15:28:55;10.40;67.90
20066;DHT22;10193;48.884;9.182;2023-02-03T15:31:30;10.40;67.90
20066;DHT22;10193;48.884;9.182;2023-02-03T15:34:01;10.40;67.60
20066;DHT22;10193;48.884;9.182;2023-02-03T15:36:35;10.40;67.80
20066;DHT22;10193;48.884;9.182;2023-02-03T15:39:13;10.40;67.80
20066;DHT22;10193;48.884;9.182;2023-02-03T15:41:42;10.40;67.90
20066;DHT22;10193;48.884;9.182;2023-02-03T15:44:16;10.40;67.90
20066;DHT22;10193;48.884;9.182;2023-02-03T15:46:49;10.40;68.00
20066;DHT22;10193;48.884;9.182;2023-02-03T15:49:20;10.40;68.00
20066;DHT22;10193;48.884;9.182;2023-02-03T15:51:49;10.40;67.80
20066;DHT22;10193;48.884;9.182;2023-02-03T15:54:20;10.40;67.90
20066;DHT22;10193;48.884;9.182;2023-02-03T15:56:50;10.40;67.80
20066;DHT22;10193;48.884;9.182;2023-02-03T15:59:23;10.30;67.80
20066;DHT22;10193;48.884;9.182;2023-02-03T16:01:53;10.30;67.80
20066;DHT22;10193;48.884;9.182;2023-02-03T16:04:21;10.30;67.70
20066;DHT22;10193;48.884;9.182;2023-02-03T16:06:48;10.30;67.80
20066;DHT22;10193;48.884;9.182;2023-02-03T16:09:28;10.30;67.80
20066;DHT22;10193;48.884;9.182;2023-02-03T16:12:14;10.20;67.80
20066;DHT22;10193;48.884;9.182;2023-02-03T16:14:42;10.10;67.80
20066;DHT22;10193;48.884;9.182;2023-02-03T16:17:25;10.10;67.80
20066;DHT22;10193;48.884;9.182;2023-02-03T16:20:21;10.10;67.90